Lawson Army Air Field (Fort Benning)
KLSF : rendu visible

Aérodrome :











RETROUVEZ-NOUS SUR...

 
LOGIN :

S'inscrire | Disclaimer

   EN    FR    IT 

 









Légende :    VFR   VFR Marginal   IFR   IFR Intensif   IFR Très Intensif
Visi : 
Plafond : 
>= 8 km
>= 3000ft
5 à 8 km
1000 à 3000 ft
1500m à 5 km
500 à 1000 ft
800 à 1500m
200 à 500 ft
< 800m
< 200 ft
Symboles :   Orages  Brouillard  Fortes neiges  Fortes précipitations  Vent > 20 kt






- Altitude de l'aérodrome : 232 ft


KLSF - Lawson Army Air Field (Fort Benning)

DERNIER METAR :
  • 290256Z AUTO 20007KT 10SM CLR 24/18 A2998 RMK AO2 SLP155 T02400175 52012

METARs EXPIRÉS :
  • 290156Z AUTO 19007KT 10SM CLR 25/18 A2997 RMK AO2 SLP152 T02510175
  • 290056Z AUTO 18008KT 5SM HZ CLR 25/18 A2995 RMK AO2 SLP145 T02450177

TAF TAF KLSF
Valide du 28 à 01h jusqu'au 29 à 07h UTC


280100Z 2801/2907 VRB06KT 9999 SKC QNH2991INS
BECMG 2806/2807 VRB04KT 4800 BR OVC010 QNH2994INS
TEMPO 2809/2812 1600 BR OVC002
BECMG 2813/2814 22012G20KT 9999 NSW SCT250 510023 QNH3000INS
BECMG 2823/2824 20006KT 9999 SCT250 QNH2993INS
BECMG 2902/2903 20006KT 9999 SKC 510203 QNH2999INS TX30/2820Z TN17/2808Z LAST NO AMDS AFT 2801 NEXT 3009



MET'MAP, la Météo Aéronautique d'un coup d'oeil ! - Copyright ORBIFLY Décembre 2007 - Disclaimer

ORBIFLY MET'MAP TEAM :

Programmation & Développement : Alexandra Zaïnal
Sur une idée originale de : Baudouin d'Aumeries
Assistance à la programmation : Marc-Olivier Méhu
Soutien technique & logistique : Manuel Goepfert

Contact : metmap@orbifly.com




SOURCES & CREDITS :

   NOAA       Earth
Advisory